createdAt,value
2022-12-28T00:00:42.191Z,6.90
2022-12-28T00:04:44.368Z,5.97
2022-12-28T00:08:46.171Z,5.50
2022-12-28T00:12:47.912Z,6.13
2022-12-28T00:16:49.742Z,6.20
2022-12-28T00:21:01.616Z,6.30
2022-12-28T00:25:03.793Z,5.60
2022-12-28T00:29:05.994Z,7.03
2022-12-28T00:33:07.759Z,6.27
2022-12-28T00:37:13.241Z,6.50
2022-12-28T00:41:15.218Z,5.70
2022-12-28T00:45:18.070Z,6.70
2022-12-28T00:49:19.826Z,6.67
2022-12-28T00:53:21.654Z,7.33
2022-12-28T00:57:23.421Z,6.50
2022-12-28T01:01:27.095Z,7.37
2022-12-28T01:05:28.949Z,6.60
2022-12-28T01:09:30.733Z,6.73
2022-12-28T01:13:32.533Z,7.67
2022-12-28T01:17:34.265Z,7.43
2022-12-28T01:21:37.062Z,7.93
2022-12-28T01:25:38.947Z,7.03
2022-12-28T01:29:40.725Z,7.13
2022-12-28T01:33:42.812Z,7.47
2022-12-28T01:37:44.602Z,7.27
2022-12-28T01:41:46.618Z,6.93
2022-12-28T01:45:52.839Z,7.03
2022-12-28T01:50:01.364Z,6.83
2022-12-28T01:54:04.528Z,7.93
2022-12-28T01:58:13.913Z,7.07
2022-12-28T02:02:16.431Z,7.17
2022-12-28T02:06:18.460Z,8.23
2022-12-28T02:10:40.735Z,7.77
2022-12-28T02:14:45.115Z,7.57
2022-12-28T02:18:48.279Z,7.50
2022-12-28T02:22:59.463Z,6.80
2022-12-28T02:27:21.423Z,8.07
2022-12-28T02:31:50.440Z,8.60
2022-12-28T02:35:59.824Z,7.40
2022-12-28T02:40:25.041Z,6.23
2022-12-28T02:44:45.481Z,5.97
2022-12-28T02:49:06.231Z,5.80
2022-12-28T02:53:24.712Z,6.17
2022-12-28T02:57:48.102Z,6.57
2022-12-28T03:02:17.310Z,6.47
2022-12-28T03:06:57.915Z,6.87
2022-12-28T03:11:11.833Z,6.40
2022-12-28T03:15:37.994Z,6.87
2022-12-28T03:20:05.784Z,7.57
2022-12-28T03:24:28.712Z,8.30
2022-12-28T03:28:51.361Z,7.30
2022-12-28T03:32:55.296Z,7.60
2022-12-28T03:37:17.320Z,8.43
2022-12-28T03:41:28.383Z,9.30
2022-12-28T03:45:45.469Z,9.33
2022-12-28T03:49:48.842Z,9.27
2022-12-28T03:53:50.985Z,8.93
2022-12-28T03:57:56.851Z,9.13
2022-12-28T04:02:02.873Z,9.67
2022-12-28T04:06:07.788Z,10.83
2022-12-28T04:10:10.575Z,10.40
2022-12-28T04:14:12.394Z,10.90
2022-12-28T04:18:17.788Z,12.17
2022-12-28T04:22:19.555Z,12.53
2022-12-28T04:26:21.373Z,11.13
2022-12-28T04:30:26.121Z,11.47
2022-12-28T04:34:27.990Z,11.70
2022-12-28T04:38:43.138Z,11.60
2022-12-28T04:42:44.934Z,12.53
2022-12-28T04:46:46.830Z,12.50
2022-12-28T04:50:48.659Z,12.60
2022-12-28T04:54:50.797Z,11.47
2022-12-28T04:58:57.805Z,11.20
2022-12-28T05:03:00.310Z,12.27
2022-12-28T05:07:02.250Z,11.23
2022-12-28T05:11:06.355Z,10.27
2022-12-28T05:15:08.483Z,10.23
2022-12-28T05:19:10.263Z,10.17
2022-12-28T05:23:12.123Z,10.20
2022-12-28T05:27:13.880Z,10.57
2022-12-28T05:31:19.257Z,10.10
2022-12-28T05:35:21.066Z,10.47
2022-12-28T05:39:22.809Z,10.80
2022-12-28T05:43:24.629Z,10.97
2022-12-28T05:47:26.506Z,10.00
2022-12-28T05:51:30.890Z,9.77
2022-12-28T05:55:32.706Z,10.60
2022-12-28T05:59:34.721Z,10.13
2022-12-28T06:03:38.153Z,10.70
2022-12-28T06:07:40.250Z,11.07
2022-12-28T06:11:42.431Z,10.63
2022-12-28T06:15:44.297Z,10.70
2022-12-28T06:19:46.003Z,10.30
2022-12-28T06:23:48.253Z,10.13
2022-12-28T06:27:49.966Z,9.93
2022-12-28T06:31:53.861Z,10.30
2022-12-28T06:35:55.779Z,10.63
2022-12-28T06:39:57.513Z,10.80
2022-12-28T06:43:59.529Z,11.10
2022-12-28T06:48:01.369Z,11.07
2022-12-28T06:52:03.303Z,11.10
2022-12-28T06:56:14.683Z,12.57
2022-12-28T07:00:16.871Z,11.60
2022-12-28T07:04:18.675Z,15.97
2022-12-28T07:08:20.439Z,17.03
2022-12-28T07:12:22.436Z,16.30
2022-12-28T07:16:25.824Z,16.80
2022-12-28T07:20:27.720Z,16.23
2022-12-28T07:24:29.699Z,21.27
2022-12-28T07:28:31.431Z,17.03
2022-12-28T07:32:36.917Z,16.43
2022-12-28T07:36:38.845Z,16.00
2022-12-28T07:40:40.619Z,16.03
2022-12-28T07:44:48.674Z,19.13
2022-12-28T07:48:51.540Z,20.53
2022-12-28T07:52:53.251Z,18.10
2022-12-28T07:56:55.041Z,17.97
2022-12-28T08:01:18.377Z,15.90
2022-12-28T08:05:20.180Z,16.83
2022-12-28T08:09:21.972Z,16.90
2022-12-28T08:13:23.738Z,17.00
2022-12-28T08:17:25.736Z,17.97
2022-12-28T08:21:30.938Z,17.17
2022-12-28T08:25:34.703Z,17.20
2022-12-28T08:29:36.557Z,18.53
2022-12-28T08:33:39.101Z,19.47
2022-12-28T08:37:40.852Z,17.03
2022-12-28T08:41:42.695Z,18.43
2022-12-28T08:45:44.431Z,14.67
2022-12-28T08:49:46.271Z,14.33
2022-12-28T08:53:48.589Z,15.00
2022-12-28T08:57:50.348Z,12.80
2022-12-28T09:01:52.213Z,11.17
2022-12-28T09:05:54.707Z,12.67
2022-12-28T09:09:56.675Z,16.77
2022-12-28T09:13:58.443Z,11.43
2022-12-28T09:18:00.285Z,9.97
2022-12-28T09:22:02.040Z,9.40
2022-12-28T09:26:12.035Z,9.37
2022-12-28T09:30:14.701Z,9.60
2022-12-28T09:34:35.461Z,10.77
2022-12-28T09:38:38.427Z,8.73
2022-12-28T09:42:42.449Z,7.77
2022-12-28T09:46:50.134Z,7.07
2022-12-28T09:50:52.251Z,6.87
2022-12-28T09:54:55.009Z,7.27
2022-12-28T09:58:57.119Z,7.03
2022-12-28T10:03:18.346Z,7.03
2022-12-28T10:07:20.391Z,7.07
2022-12-28T10:11:47.797Z,6.80
2022-12-28T10:15:50.673Z,6.87
2022-12-28T10:19:54.684Z,6.03
2022-12-28T10:24:29.750Z,6.17
2022-12-28T10:28:22.350Z,6.23
2022-12-28T10:32:24.085Z,5.97
2022-12-28T10:36:31.579Z,5.80
2022-12-28T10:40:37.492Z,5.37
2022-12-28T10:44:40.835Z,5.33
2022-12-28T10:48:56.572Z,5.10
2022-12-28T10:52:58.760Z,5.33
2022-12-28T10:57:01.142Z,5.27
2022-12-28T11:01:15.218Z,4.90
2022-12-28T11:05:23.797Z,4.90
2022-12-28T11:09:30.824Z,5.60
2022-12-28T11:13:33.517Z,5.20
2022-12-28T11:17:37.817Z,5.00
2022-12-28T11:21:41.637Z,4.80
2022-12-28T11:25:43.592Z,4.77
2022-12-28T11:29:48.854Z,4.67
2022-12-28T11:33:56.489Z,4.47
2022-12-28T11:38:00.913Z,5.27
2022-12-28T11:42:37.180Z,3.77
2022-12-28T11:46:24.498Z,4.33
2022-12-28T11:50:38.482Z,4.90
2022-12-28T11:54:55.796Z,4.13
2022-12-28T11:59:04.202Z,4.50
2022-12-28T12:03:06.001Z,4.70
2022-12-28T12:07:20.100Z,3.87
2022-12-28T12:11:31.738Z,3.60
2022-12-28T12:15:41.436Z,3.70
2022-12-28T12:19:49.022Z,3.53
2022-12-28T12:23:55.744Z,3.03
2022-12-28T12:28:03.047Z,3.60
2022-12-28T12:32:16.989Z,4.00
2022-12-28T12:36:40.704Z,4.13
2022-12-28T12:41:19.465Z,3.20
2022-12-28T12:45:50.405Z,3.10
2022-12-28T12:50:35.098Z,3.30
2022-12-28T12:54:52.387Z,2.93
2022-12-28T12:59:21.727Z,3.10
2022-12-28T13:03:43.258Z,3.20
2022-12-28T13:07:45.574Z,3.60
2022-12-28T13:11:48.269Z,3.93
2022-12-28T13:15:50.121Z,3.30
2022-12-28T13:20:06.893Z,3.07
2022-12-28T13:24:45.798Z,3.13
2022-12-28T13:28:52.386Z,3.23
2022-12-28T13:32:57.834Z,3.67
2022-12-28T13:37:02.437Z,3.60
2022-12-28T13:41:06.951Z,12.60
2022-12-28T13:45:15.279Z,5.60
2022-12-28T13:49:19.611Z,4.73
2022-12-28T13:53:25.399Z,3.20
2022-12-28T13:57:46.657Z,2.73
2022-12-28T14:01:51.162Z,3.20
2022-12-28T14:06:01.937Z,5.73
2022-12-28T14:10:04.719Z,2.83
2022-12-28T14:14:07.124Z,4.53
2022-12-28T14:18:14.257Z,2.70
2022-12-28T14:22:33.781Z,2.43
2022-12-28T14:26:38.705Z,2.60
2022-12-28T14:30:42.149Z,2.93
2022-12-28T14:34:44.049Z,3.33
2022-12-28T14:38:48.526Z,4.00
2022-12-28T14:42:52.282Z,3.70
2022-12-28T14:46:54.902Z,3.63
2022-12-28T14:51:05.789Z,3.37
2022-12-28T14:55:32.106Z,2.77
2022-12-28T14:59:37.946Z,2.37
2022-12-28T15:03:55.953Z,2.47
2022-12-28T15:07:57.732Z,2.50
2022-12-28T15:12:11.577Z,3.07
2022-12-28T15:16:14.176Z,2.97
2022-12-28T15:20:17.583Z,3.43
2022-12-28T15:24:23.110Z,2.70
2022-12-28T15:28:26.263Z,3.17
2022-12-28T15:32:28.680Z,2.77
2022-12-28T15:36:30.469Z,4.13
2022-12-28T15:40:32.467Z,3.53
2022-12-28T15:44:34.334Z,3.00
2022-12-28T15:48:38.621Z,3.57
2022-12-28T15:52:42.089Z,3.00
2022-12-28T15:56:43.858Z,4.00
2022-12-28T16:00:47.651Z,3.20
2022-12-28T16:04:50.041Z,4.13
2022-12-28T16:08:56.367Z,4.43
2022-12-28T16:12:58.151Z,4.23
2022-12-28T16:17:00.117Z,4.87
2022-12-28T16:21:03.219Z,5.30
2022-12-28T16:25:05.448Z,6.33
2022-12-28T16:29:07.242Z,8.13
2022-12-28T16:33:09.054Z,8.60
2022-12-28T16:37:10.865Z,8.30
2022-12-28T16:41:12.747Z,7.73
2022-12-28T16:45:15.014Z,9.27
2022-12-28T16:49:17.410Z,9.83
2022-12-28T16:53:24.422Z,10.67
2022-12-28T16:57:26.606Z,12.60
2022-12-28T17:01:28.573Z,12.13
2022-12-28T17:05:35.550Z,11.03
2022-12-28T17:09:37.496Z,9.97
2022-12-28T17:13:39.539Z,10.10
2022-12-28T17:17:41.280Z,11.93
2022-12-28T17:21:43.040Z,11.33
2022-12-28T17:25:50.669Z,11.37
2022-12-28T17:29:52.517Z,12.30
2022-12-28T17:33:57.905Z,13.70
2022-12-28T17:37:59.748Z,14.27
2022-12-28T17:42:01.484Z,13.20
2022-12-28T17:46:03.822Z,12.30
2022-12-28T17:50:06.657Z,12.40
2022-12-28T17:54:10.796Z,12.10
2022-12-28T17:58:12.759Z,9.70
2022-12-28T18:02:14.772Z,10.80
2022-12-28T18:06:16.718Z,8.73
2022-12-28T18:10:18.549Z,20.27
2022-12-28T18:14:20.345Z,8.33
2022-12-28T18:18:22.538Z,12.37
2022-12-28T18:22:24.371Z,14.90
2022-12-28T18:26:27.240Z,18.83
2022-12-28T18:30:29.089Z,17.10
2022-12-28T18:34:30.890Z,25.67
2022-12-28T18:38:33.175Z,36.37
2022-12-28T18:42:35.200Z,37.37
2022-12-28T18:46:37.231Z,24.53
2022-12-28T18:50:39.023Z,17.27
2022-12-28T18:54:40.973Z,20.23
2022-12-28T18:58:43.315Z,18.47
2022-12-28T19:02:45.229Z,27.33
2022-12-28T19:06:47.302Z,24.77
2022-12-28T19:10:50.045Z,23.60
2022-12-28T19:14:51.803Z,23.27
2022-12-28T19:18:53.591Z,23.87
2022-12-28T19:22:55.343Z,24.13
2022-12-28T19:26:57.162Z,25.40
2022-12-28T19:31:04.609Z,25.73
2022-12-28T19:35:07.250Z,33.47
2022-12-28T19:39:09.115Z,33.33
2022-12-28T19:43:10.929Z,33.77
2022-12-28T19:47:12.828Z,29.10
2022-12-28T19:51:15.120Z,27.30
2022-12-28T19:55:16.946Z,23.67
2022-12-28T19:59:18.744Z,20.77
2022-12-28T20:03:20.752Z,19.30
2022-12-28T20:07:22.797Z,20.10
2022-12-28T20:11:25.115Z,19.13
2022-12-28T20:15:26.929Z,18.97
2022-12-28T20:19:28.721Z,21.70
2022-12-28T20:23:30.857Z,19.70
2022-12-28T20:27:32.590Z,21.60
2022-12-28T20:31:34.406Z,21.77
2022-12-28T20:35:36.222Z,19.40
2022-12-28T20:39:38.174Z,8.10
2022-12-28T20:43:39.998Z,8.10
2022-12-28T20:47:41.933Z,10.93
2022-12-28T20:51:43.756Z,9.13
2022-12-28T20:55:45.509Z,8.00
2022-12-28T20:59:47.277Z,7.57
2022-12-28T21:03:49.524Z,8.20
2022-12-28T21:07:51.639Z,8.87
2022-12-28T21:11:53.479Z,11.37
2022-12-28T21:15:55.784Z,11.33
2022-12-28T21:19:57.608Z,8.90
2022-12-28T21:24:01.307Z,7.23
2022-12-28T21:28:03.204Z,5.83
2022-12-28T21:32:05.259Z,4.83
2022-12-28T21:36:19.021Z,7.00
2022-12-28T21:40:20.944Z,7.73
2022-12-28T21:44:24.413Z,7.33
2022-12-28T21:48:26.671Z,5.70
2022-12-28T21:52:36.534Z,5.50
2022-12-28T21:56:39.282Z,4.67
2022-12-28T22:00:59.773Z,4.30
2022-12-28T22:05:20.637Z,4.83
2022-12-28T22:09:41.050Z,4.43
2022-12-28T22:13:42.829Z,4.93
2022-12-28T22:17:44.693Z,5.87
2022-12-28T22:21:46.545Z,5.77
2022-12-28T22:25:49.440Z,8.10
2022-12-28T22:29:51.224Z,6.13
2022-12-28T22:33:55.316Z,6.70
2022-12-28T22:37:57.249Z,6.57
2022-12-28T22:41:59.053Z,4.47
2022-12-28T22:46:06.278Z,5.30
2022-12-28T22:50:10.806Z,4.10
2022-12-28T22:54:12.552Z,4.23
2022-12-28T22:58:14.308Z,4.70
2022-12-28T23:02:16.373Z,5.60
2022-12-28T23:06:19.717Z,4.83
2022-12-28T23:10:21.865Z,4.60
2022-12-28T23:14:43.625Z,3.70
2022-12-28T23:19:03.847Z,3.97
2022-12-28T23:23:24.403Z,4.80
2022-12-28T23:27:33.781Z,8.03
2022-12-28T23:31:35.594Z,6.77
2022-12-28T23:35:37.712Z,6.57
2022-12-28T23:39:39.466Z,7.20
2022-12-28T23:43:41.202Z,6.23
2022-12-28T23:47:44.127Z,5.47
2022-12-28T23:51:46.711Z,5.50
2022-12-28T23:55:48.462Z,6.03
2022-12-28T23:59:50.248Z,5.27
